createdAt,value
2019-04-29T00:01:47.728Z,10.80
2019-04-29T00:04:16.614Z,10.80
2019-04-29T00:06:45.594Z,10.70
2019-04-29T00:09:15.604Z,10.70
2019-04-29T00:11:44.525Z,10.70
2019-04-29T00:14:13.664Z,10.60
2019-04-29T00:17:08.333Z,10.60
2019-04-29T00:20:02.114Z,10.60
2019-04-29T00:22:31.172Z,10.60
2019-04-29T00:25:00.152Z,10.50
2019-04-29T00:27:29.086Z,10.60
2019-04-29T00:29:57.995Z,10.50
2019-04-29T00:32:27.064Z,10.50
2019-04-29T00:34:56.051Z,10.50
2019-04-29T00:37:44.048Z,10.50
2019-04-29T00:40:43.832Z,10.40
2019-04-29T00:43:30.600Z,10.40
2019-04-29T00:45:59.630Z,10.40
2019-04-29T00:48:28.728Z,10.40
2019-04-29T00:50:59.199Z,10.30
2019-04-29T00:53:28.414Z,10.30
2019-04-29T00:55:58.885Z,10.30
2019-04-29T00:58:27.830Z,10.30
2019-04-29T01:00:56.903Z,10.30
2019-04-29T01:03:25.843Z,10.20
2019-04-29T01:05:54.784Z,10.20
2019-04-29T01:08:23.830Z,10.20
2019-04-29T01:10:52.787Z,10.20
2019-04-29T01:13:21.676Z,10.20
2019-04-29T01:15:50.498Z,10.10
2019-04-29T01:18:19.458Z,10.10
2019-04-29T01:21:07.586Z,10.10
2019-04-29T01:23:36.406Z,10.10
2019-04-29T01:26:30.484Z,10.00
2019-04-29T01:28:59.757Z,10.10
2019-04-29T01:31:31.843Z,10.00
2019-04-29T01:34:15.803Z,10.00
2019-04-29T01:36:45.801Z,10.00
2019-04-29T01:39:16.372Z,10.00
2019-04-29T01:42:03.000Z,9.90
2019-04-29T01:44:33.992Z,9.90
2019-04-29T01:47:03.037Z,9.90
2019-04-29T01:49:31.976Z,9.90
2019-04-29T01:52:01.001Z,9.90
2019-04-29T01:54:29.977Z,9.80
2019-04-29T01:56:58.995Z,9.80
2019-04-29T01:59:28.035Z,9.80
2019-04-29T02:01:57.047Z,9.80
2019-04-29T02:04:26.054Z,9.70
2019-04-29T02:06:54.951Z,9.70
2019-04-29T02:09:29.525Z,9.70
2019-04-29T02:11:58.504Z,9.70
2019-04-29T02:14:27.569Z,9.70
2019-04-29T02:16:56.555Z,9.70
2019-04-29T02:19:25.461Z,9.60
2019-04-29T02:22:28.535Z,9.60
2019-04-29T02:25:02.794Z,9.60
2019-04-29T02:27:31.716Z,9.60
2019-04-29T02:30:00.610Z,9.50
2019-04-29T02:32:29.453Z,9.50
2019-04-29T02:34:58.402Z,9.50
2019-04-29T02:37:32.095Z,9.50
2019-04-29T02:40:10.075Z,9.40
2019-04-29T02:42:48.692Z,9.50
2019-04-29T02:45:24.486Z,9.40
2019-04-29T02:47:53.430Z,9.40
2019-04-29T02:50:22.403Z,9.40
2019-04-29T02:52:51.542Z,9.30
2019-04-29T02:55:29.336Z,9.40
2019-04-29T02:58:04.030Z,9.30
2019-04-29T03:00:52.128Z,9.30
2019-04-29T03:03:27.629Z,9.30
2019-04-29T03:05:59.842Z,9.30
2019-04-29T03:08:28.740Z,9.30
2019-04-29T03:10:58.942Z,9.30
2019-04-29T03:13:27.950Z,9.20
2019-04-29T03:15:57.087Z,9.20
2019-04-29T03:18:28.031Z,9.20
2019-04-29T03:21:01.932Z,9.20
2019-04-29T03:23:31.012Z,9.20
2019-04-29T03:25:59.785Z,9.20
2019-04-29T03:28:28.601Z,9.20
2019-04-29T03:30:57.557Z,9.10
2019-04-29T03:33:26.578Z,9.10
2019-04-29T03:35:55.636Z,9.10
2019-04-29T03:38:24.499Z,9.10
2019-04-29T03:40:53.477Z,9.10
2019-04-29T03:43:22.443Z,9.00
2019-04-29T03:45:51.326Z,9.00
2019-04-29T03:48:20.336Z,9.00
2019-04-29T03:50:49.127Z,9.00
2019-04-29T03:53:18.029Z,9.00
2019-04-29T03:55:46.985Z,9.00
2019-04-29T03:58:16.024Z,8.90
2019-04-29T04:01:29.081Z,8.90
2019-04-29T04:04:13.173Z,8.90
2019-04-29T04:06:46.959Z,8.90
2019-04-29T04:09:21.368Z,8.90
2019-04-29T04:11:50.381Z,8.80
2019-04-29T04:14:19.404Z,8.80
2019-04-29T04:17:20.267Z,8.80
2019-04-29T04:19:48.250Z,8.80
2019-04-29T04:22:17.301Z,8.80
2019-04-29T04:24:46.260Z,8.80
2019-04-29T04:27:15.089Z,8.80
2019-04-29T04:29:44.024Z,8.80
2019-04-29T04:32:12.892Z,8.80
2019-04-29T04:34:41.884Z,8.70
2019-04-29T04:37:10.862Z,8.70
2019-04-29T04:39:41.396Z,8.70
2019-04-29T04:42:10.401Z,8.70
2019-04-29T04:44:53.088Z,8.70
2019-04-29T04:47:22.147Z,8.70
2019-04-29T04:49:51.183Z,8.70
2019-04-29T04:52:21.447Z,8.70
2019-04-29T04:54:52.373Z,8.70
2019-04-29T04:57:21.290Z,8.70
2019-04-29T04:59:51.291Z,8.70
2019-04-29T05:02:21.293Z,8.70
2019-04-29T05:04:50.216Z,8.70
2019-04-29T05:07:19.271Z,8.70
2019-04-29T05:09:48.227Z,8.70
2019-04-29T05:12:17.169Z,8.70
2019-04-29T05:14:46.239Z,8.70
2019-04-29T05:17:16.675Z,8.70
2019-04-29T05:19:45.608Z,8.70
2019-04-29T05:22:14.517Z,8.70
2019-04-29T05:24:43.386Z,8.80
2019-04-29T05:27:12.432Z,8.80
2019-04-29T05:29:41.406Z,8.80
2019-04-29T05:32:10.378Z,8.80
2019-04-29T05:34:41.706Z,8.90
2019-04-29T05:37:19.187Z,8.90
2019-04-29T05:39:48.149Z,8.90
2019-04-29T05:42:17.374Z,9.00
2019-04-29T05:44:57.434Z,9.00
2019-04-29T05:47:37.979Z,9.10
2019-04-29T05:50:28.792Z,9.10
2019-04-29T05:53:17.908Z,9.20
2019-04-29T05:55:46.817Z,9.30
2019-04-29T05:58:15.730Z,9.30
2019-04-29T06:01:07.426Z,9.40
2019-04-29T06:03:37.804Z,9.50
2019-04-29T06:06:07.196Z,9.50
2019-04-29T06:08:39.320Z,9.60
2019-04-29T06:11:06.877Z,9.70
2019-04-29T06:13:35.948Z,9.80
2019-04-29T06:16:04.931Z,9.90
2019-04-29T06:18:33.817Z,10.00
2019-04-29T06:21:09.291Z,10.00
2019-04-29T06:23:33.421Z,10.10
2019-04-29T06:26:02.413Z,10.20
2019-04-29T06:28:31.301Z,10.30
2019-04-29T06:31:00.528Z,10.40
2019-04-29T06:33:30.984Z,10.40
2019-04-29T06:36:00.152Z,10.50
2019-04-29T06:38:29.137Z,10.60
2019-04-29T06:40:58.331Z,10.70
2019-04-29T06:43:28.670Z,10.70
2019-04-29T06:45:57.788Z,10.80
2019-04-29T06:48:26.796Z,10.90
2019-04-29T06:50:55.728Z,11.00
2019-04-29T06:53:24.624Z,11.10
2019-04-29T06:55:53.524Z,11.20
2019-04-29T06:58:22.446Z,11.30
2019-04-29T07:00:55.723Z,11.50
2019-04-29T07:03:25.577Z,11.60
2019-04-29T07:05:52.769Z,11.70
2019-04-29T07:08:21.744Z,11.80
2019-04-29T07:10:50.767Z,11.90
2019-04-29T07:13:22.925Z,12.00
2019-04-29T07:15:50.425Z,12.10
2019-04-29T07:18:19.411Z,12.20
2019-04-29T07:20:48.856Z,12.40
2019-04-29T07:23:17.803Z,12.50
2019-04-29T07:25:46.712Z,12.60
2019-04-29T07:28:18.491Z,12.70
2019-04-29T07:31:01.022Z,12.90
2019-04-29T07:33:22.180Z,13.10
2019-04-29T07:35:49.587Z,13.20
2019-04-29T07:38:18.667Z,13.40
2019-04-29T07:40:47.527Z,13.70
2019-04-29T07:43:16.558Z,13.90
2019-04-29T07:46:07.732Z,14.10
2019-04-29T07:48:41.319Z,14.30
2019-04-29T07:51:07.296Z,14.60
2019-04-29T07:53:44.704Z,14.90
2019-04-29T07:56:08.218Z,15.40
2019-04-29T07:58:37.345Z,15.80
2019-04-29T08:01:06.840Z,16.30
2019-04-29T08:03:35.739Z,16.80
2019-04-29T08:06:04.768Z,17.30
2019-04-29T08:08:33.651Z,17.90
2019-04-29T08:11:02.601Z,18.70
2019-04-29T08:13:31.680Z,19.60
2019-04-29T08:16:00.608Z,20.60
2019-04-29T08:18:29.520Z,21.60
2019-04-29T08:20:58.417Z,22.70
2019-04-29T08:23:27.365Z,23.60
2019-04-29T08:25:57.551Z,24.40
2019-04-29T08:28:27.038Z,25.00
2019-04-29T08:30:56.026Z,25.70
2019-04-29T08:33:25.001Z,26.30
2019-04-29T08:35:53.820Z,26.80
2019-04-29T08:38:22.775Z,27.30
2019-04-29T08:40:51.800Z,27.30
2019-04-29T08:43:38.610Z,26.80
2019-04-29T08:46:11.130Z,26.90
2019-04-29T08:48:40.148Z,27.40
2019-04-29T08:51:08.972Z,27.20
2019-04-29T08:53:39.241Z,26.60
2019-04-29T08:56:10.318Z,25.70
2019-04-29T08:58:39.506Z,25.70
2019-04-29T09:01:08.644Z,26.20
2019-04-29T09:03:40.619Z,25.90
2019-04-29T09:06:08.084Z,26.00
2019-04-29T09:08:37.069Z,25.80
2019-04-29T09:11:08.144Z,25.30
2019-04-29T09:13:36.856Z,25.60
2019-04-29T09:16:05.852Z,26.00
2019-04-29T09:18:34.782Z,26.00
2019-04-29T09:21:03.735Z,25.50
2019-04-29T09:23:33.888Z,25.10
2019-04-29T09:26:18.184Z,25.30
2019-04-29T09:28:49.819Z,25.60
2019-04-29T09:31:18.345Z,25.80
2019-04-29T09:33:50.823Z,26.10
2019-04-29T09:36:19.204Z,26.20
2019-04-29T09:38:48.168Z,26.40
2019-04-29T09:41:24.460Z,26.60
2019-04-29T09:44:12.628Z,26.70
2019-04-29T09:46:41.588Z,26.60
2019-04-29T09:49:10.362Z,26.70
2019-04-29T09:51:41.732Z,26.70
2019-04-29T09:54:14.701Z,26.50
2019-04-29T09:56:41.285Z,26.20
2019-04-29T09:59:25.796Z,26.10
2019-04-29T10:02:16.597Z,26.00
2019-04-29T10:04:59.125Z,25.70
2019-04-29T10:07:28.064Z,25.50
2019-04-29T10:09:57.839Z,25.10
2019-04-29T10:12:27.565Z,24.90
2019-04-29T10:15:17.273Z,24.70
2019-04-29T10:17:56.030Z,24.40
2019-04-29T10:20:30.416Z,24.20
2019-04-29T10:22:59.459Z,24.00
2019-04-29T10:25:29.670Z,23.90
2019-04-29T10:27:58.585Z,23.90
2019-04-29T10:30:31.108Z,23.90
2019-04-29T10:32:58.822Z,24.00
2019-04-29T10:35:27.796Z,24.00
2019-04-29T10:37:56.789Z,23.90
2019-04-29T10:40:32.672Z,23.90
2019-04-29T10:43:15.469Z,23.90
2019-04-29T10:46:02.178Z,24.00
2019-04-29T10:48:35.701Z,24.10
2019-04-29T10:51:05.462Z,24.20
2019-04-29T10:53:34.463Z,24.30
2019-04-29T10:56:05.824Z,24.50
2019-04-29T10:58:35.677Z,24.50
2019-04-29T11:01:54.630Z,24.60
2019-04-29T11:04:17.311Z,24.70
2019-04-29T11:06:46.317Z,24.80
2019-04-29T11:09:34.373Z,24.90
2019-04-29T11:12:05.368Z,25.00
2019-04-29T11:14:37.627Z,25.00
2019-04-29T11:17:04.907Z,25.10
2019-04-29T11:19:35.058Z,25.10
2019-04-29T11:22:04.608Z,25.20
2019-04-29T11:24:45.122Z,25.30
2019-04-29T11:27:18.201Z,25.40
2019-04-29T11:29:47.093Z,25.60
2019-04-29T11:32:24.846Z,25.60
2019-04-29T11:35:07.456Z,25.60
2019-04-29T11:37:38.070Z,25.60
2019-04-29T11:40:07.169Z,25.40
2019-04-29T11:42:39.466Z,25.50
2019-04-29T11:45:09.132Z,25.50
2019-04-29T11:47:38.139Z,25.50
2019-04-29T11:50:32.564Z,25.60
2019-04-29T11:53:01.686Z,25.60
2019-04-29T11:55:30.586Z,25.80
2019-04-29T11:58:08.293Z,25.90
2019-04-29T12:01:08.382Z,26.00
2019-04-29T12:03:38.941Z,26.10
2019-04-29T12:06:09.236Z,26.20
2019-04-29T12:08:38.313Z,26.20
2019-04-29T12:11:07.642Z,26.20
2019-04-29T12:13:58.910Z,26.20
2019-04-29T12:16:31.107Z,26.20
2019-04-29T12:19:07.378Z,26.10
2019-04-29T12:21:37.283Z,26.10
2019-04-29T12:24:07.745Z,26.00
2019-04-29T12:26:42.871Z,26.10
2019-04-29T12:29:07.548Z,26.10
2019-04-29T12:31:56.334Z,26.10
2019-04-29T12:34:43.435Z,26.20
2019-04-29T12:37:34.495Z,26.20
2019-04-29T12:40:36.715Z,26.10
2019-04-29T12:43:24.447Z,26.10
2019-04-29T12:46:12.548Z,26.00
2019-04-29T12:48:41.702Z,26.00
2019-04-29T12:51:10.819Z,26.00
2019-04-29T12:53:39.847Z,26.00
2019-04-29T12:56:11.256Z,25.90
2019-04-29T12:58:39.739Z,25.90
2019-04-29T13:01:19.964Z,25.80
2019-04-29T13:04:14.868Z,25.80
2019-04-29T13:07:12.988Z,25.70
2019-04-29T13:09:43.682Z,25.70
2019-04-29T13:12:19.693Z,25.70
2019-04-29T13:15:02.292Z,25.70
2019-04-29T13:17:32.016Z,25.70
2019-04-29T13:20:07.210Z,25.60
2019-04-29T13:22:54.162Z,25.50
2019-04-29T13:25:23.186Z,25.40
2019-04-29T13:27:56.070Z,25.30
2019-04-29T13:30:22.901Z,25.30
2019-04-29T13:32:52.954Z,25.30
2019-04-29T13:35:22.076Z,25.30
2019-04-29T13:37:51.046Z,25.30
2019-04-29T13:40:20.061Z,25.30
2019-04-29T13:42:51.007Z,25.20
2019-04-29T13:45:26.205Z,25.10
2019-04-29T13:48:07.103Z,25.00
2019-04-29T13:50:57.028Z,24.90
2019-04-29T13:53:26.012Z,24.70
2019-04-29T13:56:10.523Z,24.60
2019-04-29T13:58:27.175Z,24.60
2019-04-29T14:01:22.143Z,24.60
2019-04-29T14:03:51.600Z,24.50
2019-04-29T14:06:20.644Z,24.60
2019-04-29T14:08:49.669Z,24.60
2019-04-29T14:11:21.981Z,24.50
2019-04-29T14:13:49.212Z,24.50
2019-04-29T14:16:19.354Z,24.50
2019-04-29T14:18:50.043Z,24.40
2019-04-29T14:21:19.303Z,24.30
2019-04-29T14:23:48.299Z,24.20
2019-04-29T14:26:17.332Z,24.20
2019-04-29T14:28:46.265Z,24.20
2019-04-29T14:31:18.736Z,24.10
2019-04-29T14:33:55.931Z,24.20
2019-04-29T14:36:26.364Z,24.20
2019-04-29T14:38:55.366Z,24.30
2019-04-29T14:41:24.778Z,24.30
2019-04-29T14:44:05.989Z,24.40
2019-04-29T14:46:52.022Z,24.50
2019-04-29T14:49:26.660Z,24.60
2019-04-29T14:51:55.656Z,24.70
2019-04-29T14:54:24.648Z,24.80
2019-04-29T14:56:53.671Z,24.80
2019-04-29T14:59:22.635Z,24.90
2019-04-29T15:01:57.111Z,25.00
2019-04-29T15:04:28.731Z,25.00
2019-04-29T15:06:57.790Z,25.00
2019-04-29T15:09:26.808Z,25.10
2019-04-29T15:12:05.958Z,25.10
2019-04-29T15:15:07.903Z,25.10
2019-04-29T15:17:45.002Z,25.10
2019-04-29T15:20:43.060Z,25.10
2019-04-29T15:23:12.019Z,25.10
2019-04-29T15:25:41.002Z,25.10
2019-04-29T15:28:09.899Z,25.00
2019-04-29T15:30:38.770Z,25.00
2019-04-29T15:33:07.681Z,25.00
2019-04-29T15:35:36.792Z,24.90
2019-04-29T15:38:05.721Z,24.90
2019-04-29T15:40:42.202Z,24.90
2019-04-29T15:43:17.784Z,24.90
2019-04-29T15:45:46.463Z,25.10
2019-04-29T15:48:15.397Z,25.30
2019-04-29T15:50:44.440Z,25.40
2019-04-29T15:53:14.996Z,25.50
2019-04-29T15:55:43.846Z,25.60
2019-04-29T15:58:12.871Z,25.80
2019-04-29T16:00:41.947Z,25.90
2019-04-29T16:03:12.637Z,26.00
2019-04-29T16:06:19.690Z,26.20
2019-04-29T16:08:43.626Z,26.40
2019-04-29T16:11:33.276Z,26.50
2019-04-29T16:14:09.506Z,26.60
2019-04-29T16:16:31.803Z,26.50
2019-04-29T16:19:08.151Z,26.50
2019-04-29T16:21:32.220Z,26.30
2019-04-29T16:24:01.918Z,26.10
2019-04-29T16:26:32.104Z,25.80
2019-04-29T16:29:01.099Z,25.70
2019-04-29T16:31:30.136Z,25.60
2019-04-29T16:33:59.088Z,25.60
2019-04-29T16:36:28.039Z,25.60
2019-04-29T16:38:57.090Z,25.50
2019-04-29T16:41:45.179Z,25.40
2019-04-29T16:44:33.960Z,25.40
2019-04-29T16:46:46.107Z,25.40
2019-04-29T16:49:14.989Z,25.40
2019-04-29T16:51:47.943Z,25.30
2019-04-29T16:54:19.867Z,25.10
2019-04-29T16:56:45.253Z,25.00
2019-04-29T16:59:14.304Z,24.80
2019-04-29T17:01:43.451Z,24.60
2019-04-29T17:04:12.553Z,24.40
2019-04-29T17:06:47.171Z,24.20
2019-04-29T17:09:29.925Z,24.10
2019-04-29T17:12:00.122Z,23.90
2019-04-29T17:14:29.190Z,23.70
2019-04-29T17:16:58.267Z,23.60
2019-04-29T17:19:27.513Z,23.40
2019-04-29T17:22:23.603Z,23.20
2019-04-29T17:24:27.305Z,23.10
2019-04-29T17:27:03.813Z,22.90
2019-04-29T17:29:49.544Z,22.70
2019-04-29T17:32:53.802Z,22.60
2019-04-29T17:37:54.147Z,22.20
2019-04-29T17:40:24.004Z,22.00
2019-04-29T17:45:52.050Z,21.70
2019-04-29T17:48:27.790Z,21.60
2019-04-29T17:51:01.593Z,21.50
2019-04-29T17:53:35.529Z,21.40
2019-04-29T17:56:14.967Z,21.20
2019-04-29T17:58:51.595Z,21.10
2019-04-29T18:01:43.210Z,21.00
2019-04-29T18:04:28.472Z,20.90
2019-04-29T18:07:15.508Z,20.70
2019-04-29T18:09:55.192Z,20.60
2019-04-29T18:12:24.930Z,20.50
2019-04-29T18:14:55.159Z,20.30
2019-04-29T18:17:31.073Z,20.20
2019-04-29T18:20:30.754Z,20.10
2019-04-29T18:23:04.866Z,20.00
2019-04-29T18:25:50.449Z,19.80
2019-04-29T18:28:19.934Z,19.70
2019-04-29T18:30:49.829Z,19.60
2019-04-29T18:33:23.363Z,19.50
2019-04-29T18:35:50.308Z,19.40
2019-04-29T18:38:19.301Z,19.20
2019-04-29T18:40:49.436Z,19.20
2019-04-29T18:43:19.121Z,19.10
2019-04-29T18:45:56.162Z,18.90
2019-04-29T18:48:21.614Z,18.90
2019-04-29T18:50:50.422Z,18.80
2019-04-29T18:53:19.372Z,18.70
2019-04-29T18:55:48.380Z,18.60
2019-04-29T18:58:17.359Z,18.50
2019-04-29T19:00:52.324Z,18.40
2019-04-29T19:03:19.336Z,18.30
2019-04-29T19:05:56.936Z,18.30
2019-04-29T19:08:28.656Z,18.20
2019-04-29T19:10:56.548Z,18.10
2019-04-29T19:13:26.984Z,18.00
2019-04-29T19:16:08.763Z,17.90
2019-04-29T19:18:26.615Z,17.80
2019-04-29T19:20:56.960Z,17.70
2019-04-29T19:23:29.524Z,17.60
2019-04-29T19:25:56.960Z,17.60
2019-04-29T19:28:30.966Z,17.50
2019-04-29T19:31:03.257Z,17.40
2019-04-29T19:33:30.681Z,17.40
2019-04-29T19:35:57.711Z,17.30
2019-04-29T19:38:26.607Z,17.20
2019-04-29T19:40:55.826Z,17.20
2019-04-29T19:43:25.864Z,17.10
2019-04-29T19:45:57.433Z,17.00
2019-04-29T19:48:27.215Z,17.00
2019-04-29T19:51:13.916Z,16.90
2019-04-29T19:53:27.715Z,16.90
2019-04-29T19:56:04.194Z,16.80
2019-04-29T19:58:29.566Z,16.70
2019-04-29T20:01:10.888Z,16.70
2019-04-29T20:03:36.578Z,16.60
2019-04-29T20:06:09.009Z,16.60
2019-04-29T20:08:50.912Z,16.60
2019-04-29T20:11:14.109Z,16.50
2019-04-29T20:13:41.027Z,16.40
2019-04-29T20:16:42.762Z,16.40
2019-04-29T20:19:21.744Z,16.30
2019-04-29T20:21:51.199Z,16.20
2019-04-29T20:24:23.442Z,16.20
2019-04-29T20:26:50.909Z,16.10
2019-04-29T20:29:20.067Z,16.10
2019-04-29T20:31:53.312Z,16.00
2019-04-29T20:34:28.245Z,16.00
2019-04-29T20:36:56.893Z,15.90
2019-04-29T20:39:26.318Z,15.90
2019-04-29T20:42:01.107Z,15.80
2019-04-29T20:44:27.653Z,15.80
2019-04-29T20:47:13.994Z,15.80
2019-04-29T20:49:30.893Z,15.70
2019-04-29T20:52:05.848Z,15.60
2019-04-29T20:54:35.601Z,15.60
2019-04-29T20:57:12.572Z,15.50
2019-04-29T20:59:35.942Z,15.50
2019-04-29T21:02:12.575Z,15.50
2019-04-29T21:04:45.784Z,15.50
2019-04-29T21:07:08.467Z,15.40
2019-04-29T21:09:37.507Z,15.40
2019-04-29T21:12:22.972Z,15.30
2019-04-29T21:14:59.159Z,15.30
2019-04-29T21:17:31.444Z,15.20
2019-04-29T21:19:57.527Z,15.20
2019-04-29T21:22:26.495Z,15.20
2019-04-29T21:24:56.518Z,15.10
2019-04-29T21:27:25.953Z,15.10
2019-04-29T21:29:55.453Z,15.10
2019-04-29T21:32:25.838Z,15.00
2019-04-29T21:35:15.125Z,15.00
2019-04-29T21:37:53.069Z,15.00
2019-04-29T21:40:27.899Z,14.90
2019-04-29T21:43:00.935Z,14.90
2019-04-29T21:45:29.888Z,14.90
2019-04-29T21:47:58.836Z,14.90
2019-04-29T21:50:34.057Z,14.80
2019-04-29T21:53:01.952Z,14.80
2019-04-29T21:55:30.014Z,14.80
2019-04-29T21:58:00.154Z,14.70
2019-04-29T22:00:29.298Z,14.80
2019-04-29T22:02:59.077Z,14.70
2019-04-29T22:05:28.101Z,14.70
2019-04-29T22:07:57.152Z,14.60
2019-04-29T22:10:28.957Z,14.60
2019-04-29T22:13:01.926Z,14.60
2019-04-29T22:15:32.347Z,14.60
2019-04-29T22:18:01.269Z,14.60
2019-04-29T22:20:28.528Z,14.50
2019-04-29T22:22:58.652Z,14.50
2019-04-29T22:25:27.676Z,14.50
2019-04-29T22:27:56.684Z,14.50
2019-04-29T22:30:26.602Z,14.50
2019-04-29T22:32:58.675Z,14.40
2019-04-29T22:35:27.768Z,14.40
2019-04-29T22:37:56.866Z,14.40
2019-04-29T22:40:25.797Z,14.30
2019-04-29T22:43:10.207Z,14.30
2019-04-29T22:45:38.232Z,14.30
2019-04-29T22:48:15.713Z,14.30
2019-04-29T22:50:39.321Z,14.30
2019-04-29T22:53:08.998Z,14.20
2019-04-29T22:55:39.308Z,14.20
2019-04-29T22:58:09.992Z,14.20
2019-04-29T23:00:40.628Z,14.20
2019-04-29T23:03:09.612Z,14.20
2019-04-29T23:05:38.629Z,14.10
2019-04-29T23:08:07.541Z,14.10
2019-04-29T23:10:36.491Z,14.10
2019-04-29T23:13:06.157Z,14.10
2019-04-29T23:15:35.831Z,14.10
2019-04-29T23:18:06.123Z,14.10
2019-04-29T23:20:55.333Z,14.00
2019-04-29T23:23:33.436Z,14.10
2019-04-29T23:26:04.177Z,14.00
2019-04-29T23:28:32.960Z,14.00
2019-04-29T23:31:01.932Z,13.90
2019-04-29T23:33:30.754Z,13.90
2019-04-29T23:35:59.753Z,13.90
2019-04-29T23:38:28.696Z,13.90
2019-04-29T23:40:57.605Z,13.90
2019-04-29T23:43:28.435Z,13.90
2019-04-29T23:46:00.537Z,13.90
2019-04-29T23:48:38.727Z,13.80
2019-04-29T23:50:58.599Z,13.90
2019-04-29T23:53:27.620Z,13.80
2019-04-29T23:56:00.257Z,13.80
2019-04-29T23:58:47.927Z,13.80
